createdAt,value
2023-04-11T00:00:24.917Z,80.30
2023-04-11T00:02:57.458Z,80.30
2023-04-11T00:05:31.984Z,80.40
2023-04-11T00:08:02.980Z,80.40
2023-04-11T00:10:34.121Z,80.40
2023-04-11T00:13:05.196Z,80.50
2023-04-11T00:15:36.481Z,80.20
2023-04-11T00:18:08.437Z,80.60
2023-04-11T00:20:39.610Z,80.00
2023-04-11T00:23:10.848Z,80.10
2023-04-11T00:25:42.724Z,80.10
2023-04-11T00:28:13.968Z,80.50
2023-04-11T00:30:45.441Z,80.60
2023-04-11T00:33:17.714Z,80.80
2023-04-11T00:35:48.717Z,80.70
2023-04-11T00:38:19.876Z,80.40
2023-04-11T00:40:50.847Z,80.30
2023-04-11T00:43:21.789Z,79.70
2023-04-11T00:45:53.549Z,80.20
2023-04-11T00:48:26.165Z,80.40
2023-04-11T00:50:57.842Z,79.80
2023-04-11T00:53:30.200Z,79.90
2023-04-11T00:56:04.225Z,79.70
2023-04-11T00:58:35.605Z,79.30
2023-04-11T01:01:08.265Z,79.30
2023-04-11T01:03:43.543Z,78.50
2023-04-11T01:06:16.224Z,79.30
2023-04-11T01:08:48.508Z,79.10
2023-04-11T01:11:21.294Z,79.00
2023-04-11T01:13:53.701Z,79.10
2023-04-11T01:16:24.719Z,79.20
2023-04-11T01:18:55.989Z,79.10
2023-04-11T01:21:28.164Z,78.60
2023-04-11T01:23:59.650Z,78.50
2023-04-11T01:26:30.969Z,78.50
2023-04-11T01:29:01.912Z,79.00
2023-04-11T01:31:33.916Z,77.80
2023-04-11T01:34:05.425Z,77.50
2023-04-11T01:36:37.801Z,77.40
2023-04-11T01:39:08.840Z,77.20
2023-04-11T01:41:40.919Z,77.30
2023-04-11T01:44:12.106Z,77.10
2023-04-11T01:46:43.174Z,77.00
2023-04-11T01:49:16.591Z,77.00
2023-04-11T01:51:47.589Z,76.80
2023-04-11T01:54:18.578Z,77.00
2023-04-11T01:56:49.845Z,76.90
2023-04-11T01:59:20.851Z,77.00
2023-04-11T02:01:51.876Z,77.30
2023-04-11T02:04:23.022Z,77.10
2023-04-11T02:06:54.283Z,76.50
2023-04-11T02:09:25.334Z,76.50
2023-04-11T02:11:58.194Z,76.30
2023-04-11T02:14:30.625Z,75.80
2023-04-11T02:17:01.676Z,75.60
2023-04-11T02:19:32.673Z,75.70
2023-04-11T02:22:03.604Z,75.90
2023-04-11T02:24:34.584Z,75.80
2023-04-11T02:27:05.888Z,76.20
2023-04-11T02:29:37.535Z,75.70
2023-04-11T02:32:08.717Z,75.10
2023-04-11T02:34:39.817Z,75.10
2023-04-11T02:37:11.317Z,74.70
2023-04-11T02:39:42.336Z,74.40
2023-04-11T02:42:14.695Z,75.30
2023-04-11T02:44:45.787Z,73.90
2023-04-11T02:47:16.940Z,73.30
2023-04-11T02:49:48.002Z,73.20
2023-04-11T02:52:20.289Z,72.80
2023-04-11T02:54:51.527Z,73.00
2023-04-11T02:57:22.539Z,73.00
2023-04-11T02:59:53.576Z,72.90
2023-04-11T03:02:26.103Z,72.70
2023-04-11T03:04:57.142Z,72.40
2023-04-11T03:07:28.300Z,71.70
2023-04-11T03:09:59.610Z,71.10
2023-04-11T03:12:30.569Z,71.20
2023-04-11T03:15:01.622Z,70.70
2023-04-11T03:17:32.643Z,70.20
2023-04-11T03:20:03.705Z,70.20
2023-04-11T03:22:34.755Z,69.70
2023-04-11T03:25:05.854Z,69.60
2023-04-11T03:27:36.827Z,69.70
2023-04-11T03:30:08.346Z,69.80
2023-04-11T03:32:39.700Z,69.00
2023-04-11T03:35:11.201Z,68.20
2023-04-11T03:37:42.241Z,68.40
2023-04-11T03:40:14.372Z,67.10
2023-04-11T03:42:45.818Z,67.50
2023-04-11T03:45:17.013Z,67.00
2023-04-11T03:47:48.028Z,66.70
2023-04-11T03:50:19.175Z,65.60
2023-04-11T03:52:50.383Z,65.40
2023-04-11T03:55:21.649Z,65.50
2023-04-11T03:57:52.914Z,65.30
2023-04-11T04:00:23.892Z,65.10
2023-04-11T04:02:55.105Z,64.70
2023-04-11T04:05:26.996Z,64.90
2023-04-11T04:07:58.011Z,64.10
2023-04-11T04:10:28.986Z,63.80
2023-04-11T04:13:00.307Z,63.40
2023-04-11T04:15:31.307Z,63.70
2023-04-11T04:18:02.293Z,64.20
2023-04-11T04:20:33.429Z,63.10
2023-04-11T04:23:05.736Z,62.10
2023-04-11T04:25:36.814Z,62.30
2023-04-11T04:28:07.981Z,62.00
2023-04-11T04:30:39.265Z,62.40
2023-04-11T04:33:11.636Z,62.80
2023-04-11T04:35:42.923Z,61.60
2023-04-11T04:38:15.254Z,61.50
2023-04-11T04:40:47.095Z,60.90
2023-04-11T04:43:21.737Z,61.00
2023-04-11T04:45:52.916Z,60.30
2023-04-11T04:48:25.352Z,60.40
2023-04-11T04:50:56.371Z,59.40
2023-04-11T04:53:27.425Z,59.70
2023-04-11T04:55:58.382Z,59.80
2023-04-11T04:58:29.479Z,59.50
2023-04-11T05:01:00.590Z,58.70
2023-04-11T05:03:33.199Z,58.30
2023-04-11T05:06:04.470Z,58.10
2023-04-11T05:08:35.504Z,58.10
2023-04-11T05:11:06.595Z,58.20
2023-04-11T05:13:37.620Z,58.20
2023-04-11T05:16:09.487Z,58.00
2023-04-11T05:18:40.488Z,56.80
2023-04-11T05:21:11.517Z,57.10
2023-04-11T05:23:42.877Z,56.60
2023-04-11T05:26:13.853Z,57.10
2023-04-11T05:28:44.853Z,57.30
2023-04-11T05:31:15.999Z,57.80
2023-04-11T05:33:47.243Z,57.50
2023-04-11T05:36:18.274Z,56.00
2023-04-11T05:38:49.830Z,55.60
2023-04-11T05:41:20.852Z,55.60
2023-04-11T05:43:52.109Z,54.80
2023-04-11T05:46:23.171Z,55.00
2023-04-11T05:48:54.399Z,54.60
2023-04-11T05:51:25.420Z,54.70
2023-04-11T05:53:56.653Z,54.80
2023-04-11T05:56:27.781Z,54.60
2023-04-11T05:58:59.092Z,53.60
2023-04-11T06:01:31.260Z,53.50
2023-04-11T06:04:02.680Z,53.90
2023-04-11T06:06:35.021Z,54.10
2023-04-11T06:09:06.256Z,54.50
2023-04-11T06:11:38.808Z,53.90
2023-04-11T06:14:09.760Z,54.20
2023-04-11T06:16:40.723Z,54.10
2023-04-11T06:19:11.745Z,53.70
2023-04-11T06:21:42.686Z,54.00
2023-04-11T06:24:14.060Z,53.20
2023-04-11T06:26:45.090Z,53.40
2023-04-11T06:29:16.410Z,53.50
2023-04-11T06:31:47.560Z,53.20
2023-04-11T06:34:18.574Z,52.30
2023-04-11T06:36:50.962Z,52.50
2023-04-11T06:39:22.200Z,52.80
2023-04-11T06:41:53.827Z,52.70
2023-04-11T06:44:24.911Z,52.70
2023-04-11T06:46:56.234Z,53.20
2023-04-11T06:49:27.483Z,53.20
2023-04-11T06:51:58.691Z,53.30
2023-04-11T06:54:29.668Z,53.30
2023-04-11T06:57:01.364Z,52.60
2023-04-11T06:59:32.514Z,52.20
2023-04-11T07:02:03.553Z,52.30
2023-04-11T07:04:35.042Z,52.10
2023-04-11T07:07:06.250Z,52.60
2023-04-11T07:09:37.276Z,52.60
2023-04-11T07:12:09.019Z,52.10
2023-04-11T07:14:40.067Z,52.20
2023-04-11T07:17:11.036Z,52.60
2023-04-11T07:19:42.049Z,52.50
2023-04-11T07:22:13.038Z,52.40
2023-04-11T07:24:44.839Z,51.80
2023-04-11T07:27:15.988Z,51.60
2023-04-11T07:29:46.978Z,51.80
2023-04-11T07:32:17.949Z,51.40
2023-04-11T07:34:48.938Z,51.60
2023-04-11T07:37:20.050Z,51.80
2023-04-11T07:39:51.062Z,52.20
2023-04-11T07:42:22.246Z,50.90
2023-04-11T07:44:54.604Z,51.50
2023-04-11T07:47:25.654Z,51.80
2023-04-11T07:49:56.641Z,51.40
2023-04-11T07:52:30.469Z,51.90
2023-04-11T07:55:01.507Z,50.80
2023-04-11T07:57:32.659Z,52.30
2023-04-11T08:00:05.365Z,51.10
2023-04-11T08:02:36.664Z,51.10
2023-04-11T08:05:09.798Z,51.50
2023-04-11T08:07:40.860Z,51.30
2023-04-11T08:10:12.391Z,51.30
2023-04-11T08:13:07.701Z,50.70
2023-04-11T08:15:40.000Z,50.20
2023-04-11T08:18:12.277Z,50.60
2023-04-11T08:20:43.604Z,51.00
2023-04-11T08:23:14.594Z,50.80
2023-04-11T08:25:45.586Z,50.20
2023-04-11T08:28:16.688Z,50.00
2023-04-11T08:30:47.792Z,50.40
2023-04-11T08:33:18.850Z,49.90
2023-04-11T08:35:49.895Z,50.60
2023-04-11T08:38:20.966Z,50.10
2023-04-11T08:40:51.931Z,49.80
2023-04-11T08:43:22.941Z,49.50
2023-04-11T08:45:54.166Z,49.70
2023-04-11T08:48:26.508Z,50.60
2023-04-11T08:50:57.460Z,50.10
2023-04-11T08:53:29.137Z,51.20
2023-04-11T08:56:01.138Z,49.60
2023-04-11T08:58:33.495Z,49.90
2023-04-11T09:01:29.893Z,49.40
2023-04-11T09:04:02.896Z,50.40
2023-04-11T09:06:34.893Z,49.80
2023-04-11T09:09:07.599Z,50.30
2023-04-11T09:11:57.808Z,49.80
2023-04-11T09:14:29.225Z,49.70
2023-04-11T09:17:05.505Z,50.30
2023-04-11T09:19:37.500Z,49.50
2023-04-11T09:22:09.100Z,49.10
2023-04-11T09:24:40.490Z,49.30
2023-04-11T09:27:16.964Z,49.80
2023-04-11T09:29:49.740Z,49.40
2023-04-11T09:32:37.039Z,49.20
2023-04-11T09:35:19.751Z,49.40
2023-04-11T09:37:58.042Z,49.70
2023-04-11T09:40:32.897Z,49.50
2023-04-11T09:43:05.956Z,49.50
2023-04-11T09:45:47.712Z,49.70
2023-04-11T09:48:10.488Z,49.70
2023-04-11T09:50:42.427Z,49.10
2023-04-11T09:53:13.901Z,49.10
2023-04-11T09:55:44.911Z,49.50
2023-04-11T09:58:16.691Z,49.70
2023-04-11T10:00:48.817Z,49.60
2023-04-11T10:03:21.580Z,49.70
2023-04-11T10:05:55.011Z,49.80
2023-04-11T10:08:35.225Z,50.20
2023-04-11T10:11:12.539Z,50.30
2023-04-11T10:13:47.589Z,50.00
2023-04-11T10:16:23.882Z,49.80
2023-04-11T10:19:01.359Z,49.50
2023-04-11T10:21:37.898Z,49.90
2023-04-11T10:24:17.520Z,50.20
2023-04-11T10:27:08.587Z,49.70
2023-04-11T10:29:51.692Z,50.30
2023-04-11T10:32:24.760Z,50.30
2023-04-11T10:34:58.841Z,50.50
2023-04-11T10:37:40.126Z,51.00
2023-04-11T10:40:11.941Z,50.70
2023-04-11T10:42:47.997Z,51.00
2023-04-11T10:45:20.313Z,51.10
2023-04-11T10:48:02.645Z,52.40
2023-04-11T10:50:37.215Z,51.20
2023-04-11T10:53:10.610Z,51.70
2023-04-11T10:55:49.614Z,50.90
2023-04-11T10:58:23.231Z,50.90
2023-04-11T11:01:21.157Z,50.80
2023-04-11T11:03:45.123Z,51.10
2023-04-11T11:06:16.943Z,51.10
2023-04-11T11:08:48.046Z,51.30
2023-04-11T11:11:20.517Z,51.30
2023-04-11T11:13:57.151Z,51.10
2023-04-11T11:16:29.373Z,51.50
2023-04-11T11:19:01.043Z,51.20
2023-04-11T11:21:35.300Z,51.30
2023-04-11T11:24:07.023Z,51.30
2023-04-11T11:26:47.509Z,51.90
2023-04-11T11:29:18.816Z,51.90
2023-04-11T11:31:50.155Z,51.80
2023-04-11T11:34:25.350Z,51.80
2023-04-11T11:36:57.882Z,52.00
2023-04-11T11:39:30.079Z,52.40
2023-04-11T11:42:01.365Z,52.40
2023-04-11T11:44:34.396Z,52.40
2023-04-11T11:47:18.808Z,52.50
2023-04-11T11:49:54.410Z,52.70
2023-04-11T11:52:36.110Z,52.50
2023-04-11T11:55:11.380Z,52.90
2023-04-11T11:57:47.314Z,53.00
2023-04-11T12:00:22.214Z,53.20
2023-04-11T12:02:55.232Z,52.90
2023-04-11T12:05:31.911Z,53.20
2023-04-11T12:08:05.489Z,53.20
2023-04-11T12:10:47.463Z,53.20
2023-04-11T12:13:23.590Z,53.30
2023-04-11T12:15:54.191Z,53.40
2023-04-11T12:18:26.415Z,53.60
2023-04-11T12:20:57.615Z,53.50
2023-04-11T12:23:28.604Z,53.50
2023-04-11T12:25:59.649Z,53.50
2023-04-11T12:28:30.619Z,53.60
2023-04-11T12:31:01.668Z,53.70
2023-04-11T12:33:32.736Z,53.80
2023-04-11T12:36:03.788Z,54.10
2023-04-11T12:38:35.335Z,54.20
2023-04-11T12:43:38.794Z,53.90
2023-04-11T12:44:22.929Z,54.20
2023-04-11T12:46:09.851Z,53.90
2023-04-11T12:48:40.833Z,54.00
2023-04-11T12:51:11.849Z,53.90
2023-04-11T12:53:43.054Z,53.80
2023-04-11T12:56:14.132Z,53.90
2023-04-11T12:58:46.041Z,54.10
2023-04-11T13:01:17.515Z,54.40
2023-04-11T13:03:48.662Z,54.40
2023-04-11T13:06:20.763Z,54.60
2023-04-11T13:08:51.848Z,54.70
2023-04-11T13:11:22.853Z,54.70
2023-04-11T13:13:54.937Z,54.90
2023-04-11T13:16:25.999Z,55.00
2023-04-11T13:18:57.174Z,54.90
2023-04-11T13:21:29.236Z,55.10
2023-04-11T13:24:00.207Z,55.10
2023-04-11T13:26:31.270Z,55.50
2023-04-11T13:29:02.440Z,55.50
2023-04-11T13:31:33.546Z,55.10
2023-04-11T13:34:04.712Z,55.20
2023-04-11T13:36:36.677Z,55.50
2023-04-11T13:39:08.059Z,55.70
2023-04-11T13:41:39.060Z,55.40
2023-04-11T13:44:29.010Z,55.50
2023-04-11T13:46:59.955Z,55.70
2023-04-11T13:49:30.976Z,55.50
2023-04-11T13:52:05.124Z,55.60
2023-04-11T13:54:36.590Z,55.40
2023-04-11T13:57:08.980Z,55.20
2023-04-11T13:59:40.038Z,55.30
2023-04-11T14:02:11.718Z,56.00
2023-04-11T14:04:42.945Z,56.40
2023-04-11T14:07:13.960Z,56.50
2023-04-11T14:09:45.007Z,57.20
2023-04-11T14:12:15.951Z,56.60
2023-04-11T14:14:46.928Z,56.60
2023-04-11T14:17:17.911Z,56.60
2023-04-11T14:19:48.865Z,56.60
2023-04-11T14:22:19.856Z,56.60
2023-04-11T14:24:50.817Z,56.40
2023-04-11T14:27:21.866Z,56.30
2023-04-11T14:29:53.440Z,56.40
2023-04-11T14:32:24.615Z,57.20
2023-04-11T14:34:55.580Z,56.50
2023-04-11T14:37:26.739Z,56.60
2023-04-11T14:39:57.880Z,56.80
2023-04-11T14:42:29.022Z,56.60
2023-04-11T14:44:59.998Z,57.20
2023-04-11T14:47:31.216Z,57.50
2023-04-11T14:50:02.672Z,57.40
2023-04-11T14:52:33.704Z,57.60
2023-04-11T14:55:04.680Z,57.60
2023-04-11T14:57:47.563Z,57.60
2023-04-11T15:00:21.066Z,57.80
2023-04-11T15:02:56.405Z,57.80
2023-04-11T15:05:27.912Z,58.00
2023-04-11T15:07:59.558Z,58.20
2023-04-11T15:10:30.616Z,58.30
2023-04-11T15:13:01.675Z,58.40
2023-04-11T15:15:33.155Z,58.40
2023-04-11T15:18:26.169Z,59.00
2023-04-11T15:21:01.021Z,58.80
2023-04-11T15:23:32.199Z,58.80
2023-04-11T15:26:07.368Z,58.70
2023-04-11T15:28:42.742Z,58.60
2023-04-11T15:31:15.638Z,58.60
2023-04-11T15:33:46.735Z,58.70
2023-04-11T15:36:18.796Z,58.90
2023-04-11T15:38:49.843Z,58.90
2023-04-11T15:41:20.836Z,59.50
2023-04-11T15:43:51.829Z,58.90
2023-04-11T15:46:22.885Z,59.60
2023-04-11T15:48:53.907Z,58.40
2023-04-11T15:51:25.912Z,58.70
2023-04-11T15:53:57.209Z,58.80
2023-04-11T15:56:29.440Z,59.00
2023-04-11T15:59:00.632Z,59.20
2023-04-11T16:01:32.192Z,59.20
2023-04-11T16:04:04.112Z,59.10
2023-04-11T16:06:35.335Z,59.00
2023-04-11T16:09:06.417Z,59.00
2023-04-11T16:11:38.800Z,58.70
2023-04-11T16:14:09.776Z,58.80
2023-04-11T16:16:40.848Z,58.70
2023-04-11T16:19:11.918Z,58.90
2023-04-11T16:21:44.031Z,58.80
2023-04-11T16:24:15.250Z,58.90
2023-04-11T16:26:46.944Z,58.90
2023-04-11T16:29:17.949Z,58.90
2023-04-11T16:31:49.007Z,58.80
2023-04-11T16:34:20.339Z,59.00
2023-04-11T16:36:52.481Z,59.10
2023-04-11T16:39:23.736Z,59.10
2023-04-11T16:41:56.026Z,59.10
2023-04-11T16:44:27.312Z,59.30
2023-04-11T16:46:58.432Z,59.50
2023-04-11T16:49:29.390Z,59.80
2023-04-11T16:52:00.456Z,60.00
2023-04-11T16:54:31.527Z,60.20
2023-04-11T16:57:02.750Z,60.50
2023-04-11T16:59:34.088Z,60.70
2023-04-11T17:02:05.334Z,60.60
2023-04-11T17:04:36.421Z,60.70
2023-04-11T17:07:07.295Z,60.50
2023-04-11T17:09:38.018Z,60.60
2023-04-11T17:12:09.195Z,60.60
2023-04-11T17:14:39.917Z,60.60
2023-04-11T17:17:10.808Z,60.60
2023-04-11T17:19:41.812Z,60.80
2023-04-11T17:22:13.987Z,61.10
2023-04-11T17:24:44.802Z,61.10
2023-04-11T17:27:15.513Z,61.30
2023-04-11T17:29:46.296Z,61.30
2023-04-11T17:32:17.229Z,61.30
2023-04-11T17:34:48.897Z,61.60
2023-04-11T17:37:19.851Z,61.40
2023-04-11T17:39:51.209Z,61.20
2023-04-11T17:42:22.148Z,61.20
2023-04-11T17:44:54.648Z,61.40
2023-04-11T17:47:25.471Z,61.50
2023-04-11T17:49:57.817Z,61.60
2023-04-11T17:52:28.781Z,61.50
2023-04-11T17:54:59.772Z,61.50
2023-04-11T17:57:31.911Z,61.60
2023-04-11T18:00:04.303Z,61.80
2023-04-11T18:02:38.309Z,61.90
2023-04-11T18:05:22.542Z,61.90
2023-04-11T18:07:42.993Z,62.10
2023-04-11T18:10:16.097Z,62.10
2023-04-11T18:12:48.568Z,62.00
2023-04-11T18:15:19.921Z,62.20
2023-04-11T18:17:50.940Z,62.40
2023-04-11T18:20:22.107Z,62.30
2023-04-11T18:22:55.682Z,62.40
2023-04-11T18:25:26.721Z,62.60
2023-04-11T18:27:57.673Z,62.90
2023-04-11T18:30:28.896Z,63.00
2023-04-11T18:33:00.104Z,63.00
2023-04-11T18:35:31.249Z,63.10
2023-04-11T18:38:02.383Z,63.10
2023-04-11T18:40:33.932Z,63.20
2023-04-11T18:43:05.256Z,63.20
2023-04-11T18:45:36.262Z,63.30
2023-04-11T18:48:07.434Z,63.70
2023-04-11T18:50:42.612Z,64.40
2023-04-11T18:53:14.192Z,63.60
2023-04-11T18:55:45.533Z,64.00
2023-04-11T18:58:18.614Z,63.90
2023-04-11T19:00:50.946Z,64.20
2023-04-11T19:03:22.422Z,64.20
2023-04-11T19:05:54.225Z,64.10
2023-04-11T19:08:25.621Z,64.40
2023-04-11T19:10:56.909Z,64.10
2023-04-11T19:13:27.912Z,64.30
2023-04-11T19:15:59.222Z,64.70
2023-04-11T19:18:30.175Z,64.60
2023-04-11T19:21:01.234Z,64.60
2023-04-11T19:23:32.281Z,64.50
2023-04-11T19:26:03.392Z,65.00
2023-04-11T19:28:34.445Z,65.30
2023-04-11T19:31:05.610Z,65.30
2023-04-11T19:33:37.134Z,65.30
2023-04-11T19:36:08.723Z,65.50
2023-04-11T19:38:40.880Z,65.60
2023-04-11T19:41:16.716Z,65.40
2023-04-11T19:43:49.609Z,66.20
2023-04-11T19:46:20.725Z,66.20
2023-04-11T19:48:52.604Z,66.10
2023-04-11T19:51:23.890Z,66.20
2023-04-11T19:53:55.264Z,65.70
2023-04-11T19:56:26.485Z,66.20
2023-04-11T19:58:57.717Z,66.70
2023-04-11T20:01:30.142Z,66.80
2023-04-11T20:04:01.842Z,66.80
2023-04-11T20:06:34.472Z,66.90
2023-04-11T20:09:05.482Z,67.30
2023-04-11T20:11:37.715Z,67.30
2023-04-11T20:14:09.090Z,67.70
2023-04-11T20:16:41.417Z,67.60
2023-04-11T20:19:12.570Z,67.50
2023-04-11T20:21:43.585Z,67.60
2023-04-11T20:24:14.558Z,67.90
2023-04-11T20:26:45.730Z,67.90
2023-04-11T20:29:18.249Z,67.90
2023-04-11T20:31:49.304Z,68.30
2023-04-11T20:34:20.282Z,68.10
2023-04-11T20:36:51.533Z,68.30
2023-04-11T20:39:22.692Z,68.40
2023-04-11T20:41:53.667Z,68.60
2023-04-11T20:44:26.856Z,68.50
2023-04-11T20:46:58.141Z,68.90
2023-04-11T20:49:29.486Z,69.00
2023-04-11T20:52:01.351Z,68.90
2023-04-11T20:54:32.611Z,69.30
2023-04-11T20:57:03.798Z,69.30
2023-04-11T20:59:35.405Z,69.60
2023-04-11T21:02:06.509Z,69.60
2023-04-11T21:04:37.759Z,69.50
2023-04-11T21:07:08.844Z,69.70
2023-04-11T21:09:39.912Z,69.70
2023-04-11T21:12:10.938Z,69.70
2023-04-11T21:14:42.455Z,70.00
2023-04-11T21:17:13.478Z,69.70
2023-04-11T21:19:44.467Z,70.20
2023-04-11T21:22:15.450Z,70.40
2023-04-11T21:24:46.446Z,70.50
2023-04-11T21:27:17.428Z,71.00
2023-04-11T21:29:48.410Z,71.00
2023-04-11T21:32:19.526Z,71.10
2023-04-11T21:34:50.591Z,71.10
2023-04-11T21:37:21.699Z,71.30
2023-04-11T21:39:52.680Z,71.00
2023-04-11T21:42:23.652Z,71.40
2023-04-11T21:44:55.229Z,71.20
2023-04-11T21:47:26.323Z,71.70
2023-04-11T21:49:57.296Z,71.70
2023-04-11T21:52:28.297Z,71.80
2023-04-11T21:54:59.314Z,71.40
2023-04-11T21:57:30.426Z,72.10
2023-04-11T22:00:01.757Z,72.60
2023-04-11T22:02:33.227Z,72.40
2023-04-11T22:05:06.943Z,72.70
2023-04-11T22:07:41.848Z,72.80
2023-04-11T22:10:13.173Z,72.70
2023-04-11T22:12:46.659Z,73.00
2023-04-11T22:15:19.151Z,73.00
2023-04-11T22:17:51.736Z,73.30
2023-04-11T22:20:22.773Z,73.10
2023-04-11T22:22:53.862Z,73.30
2023-04-11T22:25:26.082Z,73.40
2023-04-11T22:27:57.085Z,74.60
2023-04-11T22:30:28.716Z,73.70
2023-04-11T22:32:59.718Z,74.10
2023-04-11T22:35:31.309Z,74.30
2023-04-11T22:38:02.393Z,74.30
2023-04-11T22:40:33.459Z,74.30
2023-04-11T22:43:05.936Z,74.40
2023-04-11T22:45:40.306Z,74.40
2023-04-11T22:48:11.496Z,74.40
2023-04-11T22:50:42.787Z,74.50
2023-04-11T22:53:15.160Z,75.40
2023-04-11T22:55:46.114Z,75.20
2023-04-11T22:58:17.099Z,75.70
2023-04-11T23:00:48.928Z,74.80
2023-04-11T23:03:20.236Z,74.80
2023-04-11T23:05:51.311Z,74.40
2023-04-11T23:08:22.332Z,74.80
2023-04-11T23:10:53.293Z,73.60
2023-04-11T23:13:24.301Z,74.70
2023-04-11T23:15:56.132Z,74.50
2023-04-11T23:18:27.129Z,74.80
2023-04-11T23:20:59.268Z,75.00
2023-04-11T23:23:30.268Z,75.30
2023-04-11T23:26:01.268Z,75.70
2023-04-11T23:28:32.254Z,75.90
2023-04-11T23:31:03.294Z,76.60
2023-04-11T23:33:34.402Z,76.20
2023-04-11T23:36:05.530Z,76.20
2023-04-11T23:38:38.064Z,75.80
2023-04-11T23:41:09.407Z,75.90
2023-04-11T23:43:40.402Z,76.10
2023-04-11T23:46:11.397Z,76.00
2023-04-11T23:48:42.583Z,76.00
2023-04-11T23:51:13.570Z,76.50
2023-04-11T23:53:46.662Z,76.80
2023-04-11T23:56:17.886Z,76.80
2023-04-11T23:58:48.857Z,76.70
